Login to view Products
 
Friday, December 02, 2022 (12:15 UTC)
Abu Dhabi International Airport
Last Updated: 02-Dec-2022 (12:14Z)
Wind Dir/Speed: WNW at 09 kt
Temperature: 28.0°C
Rel. Humidity: 61 %
Pressure: 1012.5 hPa
Visibility: 10000 m
ACTUALS:
  • METAR OMAA 021200Z 29009KT 270V330 CAVOK 28/20 Q1012 NOSIG
  • TAF OMAA 021100Z 0212/0318 32012KT 8000 FEW040 BECMG 0222/0300 VRB02KT PROB30 0301/0304 14005KT 4000 HZ BECMG 0306/0308 32012KT=
12-- D:\Input Parser\Destinations\Final\11\OMAA_TAF.txt-- 02/12/2022-- 02/12/2022-- 3